Time;durP1;ratioP1;P1;durP2;ratioP2;P2;SDS_P1;SDS_P2;PMS_P1;PMS_P2;Temp;Humidity;BMP_temperature;BMP_pressure;BME280_temperature;BME280_humidity;BME280_pressure;Samples;Min_cycle;Max_cycle;Signal;HPM_P1;HPM_P2
2022/04/29 00:00:30;;;;;;;7.30;2.90;;;;;;;21.97;36.37;103245.72;5103169;28;20032;-79
2022/04/29 00:02:55;;;;;;;3.33;2.50;;;;;;;21.91;36.20;103236.50;5104506;28;20088;-79
2022/04/29 00:05:21;;;;;;;3.35;2.70;;;;;;;21.92;36.23;103240.81;5085761;28;20049;-79
2022/04/29 00:07:47;;;;;;;2.65;2.22;;;;;;;21.89;36.26;103234.94;5099892;28;20126;-79
2022/04/29 00:10:15;;;;;;;3.67;2.80;;;;;;;21.88;36.39;103235.91;5099000;28;20538;-79
2022/04/29 00:12:43;;;;;;;2.97;2.38;;;;;;;21.89;36.35;103241.06;5094903;28;20436;-79
2022/04/29 00:15:11;;;;;;;4.28;2.60;;;;;;;21.70;36.37;103209.19;5101690;28;20449;-79
2022/04/29 00:17:37;;;;;;;2.97;2.58;;;;;;;21.88;36.17;103243.84;5099784;28;20047;-79
2022/04/29 00:20:04;;;;;;;3.25;2.40;;;;;;;21.79;36.17;103237.56;5098239;28;20031;-79
2022/04/29 00:22:30;;;;;;;2.78;2.47;;;;;;;21.83;36.23;103249.56;5099979;27;20040;-80
2022/04/29 00:24:56;;;;;;;4.10;2.30;;;;;;;21.82;36.30;103241.75;5101550;28;20031;-79
2022/04/29 00:27:21;;;;;;;4.03;2.63;;;;;;;21.75;36.16;103230.84;5098917;28;20200;-79
2022/04/29 00:29:47;;;;;;;3.22;2.53;;;;;;;21.75;36.06;103228.19;5082777;28;20043;-79
2022/04/29 00:32:12;;;;;;;4.00;2.45;;;;;;;21.57;36.30;103206.78;5101309;28;20102;-79
2022/04/29 00:34:38;;;;;;;5.95;3.28;;;;;;;21.75;36.40;103232.66;5096938;28;20595;-79
2022/04/29 00:37:04;;;;;;;3.58;2.28;;;;;;;21.74;36.41;103228.34;5084858;28;20040;-79
2022/04/29 00:39:30;;;;;;;4.57;2.63;;;;;;;21.66;36.38;103218.38;5100423;28;20065;-79
2022/04/29 00:41:55;;;;;;;4.25;2.50;;;;;;;21.66;36.33;103221.88;5085480;28;20137;-80
2022/04/29 00:44:21;;;;;;;2.90;2.60;;;;;;;21.74;36.49;103234.47;5100791;28;20109;-79
2022/04/29 00:46:47;;;;;;;3.83;2.55;;;;;;;21.72;36.12;103231.09;5085639;28;20146;-79
2022/04/29 00:49:14;;;;;;;2.90;2.42;;;;;;;21.64;36.33;103217.69;5103424;27;20043;-79
2022/04/29 00:51:43;;;;;;;2.45;2.25;;;;;;;21.66;36.14;103221.03;5085764;28;20039;-80
2022/04/29 00:54:13;;;;;;;2.75;2.55;;;;;;;21.62;36.46;103214.34;5081579;28;20071;-80
2022/04/29 00:56:41;;;;;;;2.40;2.22;;;;;;;21.61;36.25;103218.78;5102050;28;20142;-80
2022/04/29 00:59:15;;;;;;;2.42;2.22;;;;;;;21.38;36.45;103185.50;5098333;28;20039;-80
2022/04/29 01:01:43;;;;;;;4.55;2.45;;;;;;;21.32;36.49;103175.41;5092015;27;20032;-80
2022/04/29 01:04:14;;;;;;;5.15;2.85;;;;;;;21.35;36.57;103183.09;5079460;28;20502;-80
2022/04/29 01:06:39;;;;;;;3.80;2.60;;;;;;;21.50;36.37;103212.75;5099329;28;20036;-81
2022/04/29 01:09:05;;;;;;;3.58;2.50;;;;;;;21.34;36.67;103190.22;5078714;28;20063;-80
2022/04/29 01:11:31;;;;;;;3.72;2.38;;;;;;;21.34;36.58;103189.38;5065167;28;20070;-79
2022/04/29 01:13:57;;;;;;;3.03;2.47;;;;;;;21.47;36.61;103211.19;5085352;28;20063;-80
2022/04/29 01:16:23;;;;;;;3.70;2.45;;;;;;;21.45;36.48;103199.06;5075690;28;20059;-79
2022/04/29 01:18:51;;;;;;;3.25;2.80;;;;;;;21.46;36.64;103195.44;5101339;27;20035;-79
2022/04/29 01:21:17;;;;;;;4.10;2.40;;;;;;;21.45;36.56;103196.41;5083317;28;20110;-79
2022/04/29 01:23:43;;;;;;;3.35;2.40;;;;;;;21.45;36.46;103194.59;5099056;28;20058;-80
2022/04/29 01:26:15;;;;;;;3.78;2.20;;;;;;;21.42;36.60;103182.44;5079998;28;20032;-80
2022/04/29 01:28:45;;;;;;;3.58;2.65;;;;;;;21.43;36.45;103180.63;5077982;28;20147;-79
2022/04/29 01:31:14;;;;;;;2.70;2.40;;;;;;;21.33;36.56;103158.53;5074065;28;22105;-79
2022/04/29 01:33:46;;;;;;;3.22;2.53;;;;;;;21.42;36.51;103171.84;5057392;28;21949;-80
2022/04/29 01:36:13;;;;;;;3.00;2.40;;;;;;;21.42;36.41;103171.84;5080257;28;20469;-80
2022/04/29 01:38:39;;;;;;;4.60;2.60;;;;;;;21.35;36.33;103157.44;5098238;28;20047;-80
2022/04/29 01:41:06;;;;;;;5.13;2.50;;;;;;;21.39;36.44;103166.81;5079642;28;20430;-80
2022/04/29 01:43:37;;;;;;;4.28;2.70;;;;;;;21.38;36.47;103170.44;5090046;28;20110;-80
2022/04/29 01:46:03;;;;;;;3.95;2.80;;;;;;;21.38;36.55;103178.41;5064943;28;20102;-80
2022/04/29 01:48:47;;;;;;;4.32;2.70;;;;;;;21.41;36.30;103178.13;5100795;27;20130;-80
2022/04/29 01:51:48;;;;;;;3.00;2.58;;;;;;;21.29;36.55;103163.28;5078226;28;20046;-80
2022/04/29 01:54:14;;;;;;;4.82;2.60;;;;;;;21.38;36.41;103182.84;5062589;28;20039;-80
2022/04/29 01:56:41;;;;;;;2.95;2.45;;;;;;;21.33;36.31;103177.09;5084435;28;20032;-80
2022/04/29 01:59:10;;;;;;;;;;;;;;;21.37;36.18;103176.72;5090435;28;20140;-80
2022/04/29 02:01:46;;;;;;;3.00;2.40;;;;;;;21.34;36.34;103178.78;5080110;28;19926;-80
2022/04/29 02:04:15;;;;;;;3.13;2.50;;;;;;;21.25;36.39;103150.44;5085437;28;20043;-80
2022/04/29 02:06:42;;;;;;;3.17;2.50;;;;;;;21.28;36.25;103161.59;5080755;28;20036;-80
2022/04/29 02:09:08;;;;;;;5.70;2.60;;;;;;;21.32;36.40;103172.78;5092438;28;20795;-80
2022/04/29 02:11:34;;;;;;;3.03;2.40;;;;;;;21.34;36.20;103169.00;5083366;28;20036;-81
2022/04/29 02:14:20;;;;;;;2.40;2.17;;;;;;;21.30;36.19;103164.94;5097639;28;20044;-80
2022/04/29 02:16:55;;;;;;;2.28;2.08;;;;;;;21.33;36.24;103169.16;5064119;28;20074;-80
2022/04/29 02:19:22;;;;;;;2.65;2.30;;;;;;;21.17;36.24;103143.09;5087298;28;20065;-80
2022/04/29 02:21:49;;;;;;;3.75;2.22;;;;;;;21.31;36.32;103157.84;5071045;28;20032;-80
2022/04/29 02:24:15;;;;;;;2.75;2.50;;;;;;;21.29;36.27;103159.78;5072367;28;20035;-80
2022/04/29 02:26:41;;;;;;;4.20;2.53;;;;;;;21.27;36.29;103156.44;5083685;28;20428;-80
2022/04/29 02:29:07;;;;;;;3.05;2.50;;;;;;;21.31;36.25;103161.31;5101715;28;20047;-80
2022/04/29 02:31:34;;;;;;;2.42;2.22;;;;;;;21.29;36.20;103168.56;5083074;28;20641;-80
2022/04/29 02:34:00;;;;;;;3.10;2.15;;;;;;;21.29;36.38;103160.63;5085093;28;20044;-80
2022/04/29 02:36:26;;;;;;;4.10;2.60;;;;;;;21.28;36.34;103160.75;5093626;28;20074;-80
2022/04/29 02:38:51;;;;;;;3.15;2.60;;;;;;;21.19;36.20;103150.94;5089028;28;20064;-80
2022/04/29 02:41:17;;;;;;;2.88;2.38;;;;;;;21.29;36.16;103162.44;5083440;28;20499;-80
2022/04/29 02:43:44;;;;;;;3.25;2.45;;;;;;;21.25;36.38;103161.88;5094699;28;20036;-80
2022/04/29 02:46:09;;;;;;;3.60;2.15;;;;;;;21.21;36.27;103151.66;5071723;28;20043;-80
2022/04/29 02:48:35;;;;;;;3.45;2.10;;;;;;;21.25;36.20;103147.78;5066725;28;20040;-79
2022/04/29 02:51:02;;;;;;;3.53;2.38;;;;;;;21.22;36.26;103148.84;5079599;28;20063;-80
2022/04/29 02:53:29;;;;;;;2.75;2.50;;;;;;;21.22;36.41;103150.66;5070143;28;20055;-80
2022/04/29 02:55:54;;;;;;;2.92;2.17;;;;;;;21.21;36.32;103146.34;5078665;28;20032;-79
2022/04/29 02:58:32;;;;;;;3.55;2.30;;;;;;;21.10;36.45;103134.84;5066909;28;20043;-80
2022/04/29 03:00:57;;;;;;;2.35;2.13;;;;;;;21.23;36.38;103157.66;5080693;28;20073;-80
2022/04/29 03:03:23;;;;;;;2.15;1.95;;;;;;;21.15;36.34;103142.41;5083377;28;20039;-81
2022/04/29 03:05:49;;;;;;;3.70;2.30;;;;;;;21.20;36.15;103156.09;5098931;28;20440;-80
2022/04/29 03:08:15;;;;;;;2.63;2.30;;;;;;;21.07;36.17;103137.78;5096377;28;20046;-80
2022/04/29 03:10:40;;;;;;;3.13;2.30;;;;;;;21.21;36.30;103149.00;5062917;28;20046;-80
2022/04/29 03:13:06;;;;;;;3.63;2.40;;;;;;;21.04;36.36;103123.97;5096893;28;20039;-80
2022/04/29 03:15:54;;;;;;;2.97;2.35;;;;;;;21.19;36.08;103141.19;5075917;28;20129;-80
2022/04/29 03:18:22;;;;;;;3.28;2.60;;;;;;;21.17;35.93;103147.56;5062415;28;20048;-80
2022/04/29 03:20:56;;;;;;;4.68;2.28;;;;;;;21.13;36.19;103152.28;5062204;28;20058;-80
2022/04/29 03:23:22;;;;;;;3.00;2.20;;;;;;;21.05;36.42;103141.53;5076675;28;20054;-80
2022/04/29 03:25:55;;;;;;;2.53;2.30;;;;;;;21.07;36.32;103139.59;5100303;28;20038;-81
2022/04/29 03:28:21;;;;;;;2.72;2.45;;;;;;;21.06;36.33;103144.03;5081808;28;20039;-80
2022/04/29 03:30:50;;;;;;;2.72;2.20;;;;;;;21.04;36.26;103147.81;5081218;28;20044;-80
2022/04/29 03:33:16;;;;;;;2.22;2.03;;;;;;;21.02;36.47;103137.34;5066787;28;20070;-80
2022/04/29 03:35:47;;;;;;;3.58;2.40;;;;;;;20.80;36.55;103108.34;5083225;28;20047;-80
2022/04/29 03:38:19;;;;;;;2.63;2.10;;;;;;;20.92;36.53;103132.94;5081757;28;20027;-80
2022/04/29 03:40:45;;;;;;;2.55;2.05;;;;;;;20.79;36.54;103114.59;5086389;28;20055;-80
2022/04/29 03:43:12;;;;;;;2.30;2.03;;;;;;;20.96;36.36;103143.13;5075613;28;20634;-80
2022/04/29 03:45:38;;;;;;;2.38;2.17;;;;;;;20.89;36.50;103135.88;5084205;28;20447;-79
2022/04/29 03:48:06;;;;;;;3.22;2.17;;;;;;;20.80;36.51;103117.13;5086980;28;20073;-80
2022/04/29 03:50:40;;;;;;;3.13;2.42;;;;;;;20.94;36.52;103144.25;5088147;28;20035;-80
2022/04/29 03:53:11;;;;;;;3.45;2.28;;;;;;;20.85;36.65;103130.00;5081721;28;20523;-80
2022/04/29 03:55:39;;;;;;;2.20;2.00;;;;;;;20.94;36.42;103133.66;5068302;28;20572;-79
2022/04/29 03:58:06;;;;;;;3.28;2.35;;;;;;;20.93;36.42;103150.50;5082070;28;20734;-80
2022/04/29 04:00:42;;;;;;;3.30;2.30;;;;;;;20.94;36.50;103149.53;5080419;28;20462;-77
2022/04/29 04:03:10;;;;;;;3.10;2.40;;;;;;;20.89;36.36;103138.50;5066667;28;20047;-78
2022/04/29 04:05:36;;;;;;;2.55;2.17;;;;;;;20.93;36.39;103147.88;5085504;28;20126;-79
2022/04/29 04:08:02;;;;;;;3.03;2.30;;;;;;;20.91;36.47;103148.00;5076863;28;20042;-78
2022/04/29 04:10:41;;;;;;;2.65;2.10;;;;;;;20.87;36.51;103146.59;5079931;28;20040;-81
2022/04/29 04:13:10;;;;;;;3.72;2.33;;;;;;;20.91;36.43;103150.66;5084293;28;20039;-80
2022/04/29 04:15:55;;;;;;;2.90;2.30;;;;;;;20.89;36.52;103149.94;5097342;28;20058;-81
2022/04/29 04:18:20;;;;;;;2.75;2.17;;;;;;;20.88;36.47;103150.91;5085547;28;20031;-81
2022/04/29 04:20:48;;;;;;;2.53;2.03;;;;;;;20.88;36.47;103142.97;5068637;28;20040;-81
2022/04/29 04:23:14;;;;;;;3.13;2.13;;;;;;;20.86;36.61;103141.44;5066088;28;20089;-80
2022/04/29 04:25:40;;;;;;;2.92;2.45;;;;;;;20.84;36.49;103143.38;5087051;28;20661;-80
2022/04/29 04:28:12;;;;;;;2.40;2.20;;;;;;;20.81;36.53;103142.63;5070619;28;20035;-81
2022/04/29 04:30:47;;;;;;;2.42;2.00;;;;;;;20.70;36.42;103136.59;5076257;28;20410;-81
2022/04/29 04:33:15;;;;;;;2.15;1.98;;;;;;;20.77;36.55;103150.97;5044093;28;20042;-80
2022/04/29 04:35:41;;;;;;;2.97;2.30;;;;;;;20.75;36.59;103158.22;5070195;28;20043;-81
2022/04/29 04:38:07;;;;;;;2.45;2.10;;;;;;;20.71;36.53;103157.63;5094600;28;20024;-82
2022/04/29 04:40:53;;;;;;;2.30;2.10;;;;;;;20.54;36.78;103137.03;5093985;28;20051;-82
2022/04/29 04:43:20;;;;;;;2.63;2.20;;;;;;;20.54;36.74;103130.91;5069567;28;20039;-82
2022/04/29 04:45:50;;;;;;;2.72;2.20;;;;;;;20.61;36.77;103154.06;5080815;28;20563;-82
2022/04/29 04:48:44;;;;;;;2.35;2.15;;;;;;;20.62;36.68;103155.75;5042741;28;20593;-81
2022/04/29 04:51:36;;;;;;;2.75;2.08;;;;;;;20.56;36.84;103142.19;5052066;28;20048;-81
2022/04/29 04:54:06;;;;;;;;;;;;;;;20.65;36.78;103158.16;5084448;28;20047;-81
2022/04/29 05:00:52;;;;;;;2.88;2.15;;;;;;;20.67;36.78;103142.16;5098534;28;20553;-81
2022/04/29 05:03:41;;;;;;;2.80;2.03;;;;;;;20.46;36.81;103105.91;5091406;27;20051;-81
2022/04/29 05:06:27;;;;;;;2.33;2.08;;;;;;;20.67;36.91;103152.75;5082785;28;20071;-82
2022/04/29 05:08:52;;;;;;;2.40;2.17;;;;;;;20.61;37.00;103153.22;5094600;27;20777;-81
2022/04/29 05:11:18;;;;;;;2.15;2.00;;;;;;;20.67;36.90;103160.69;5076686;28;20035;-82
2022/04/29 05:13:46;;;;;;;2.63;2.00;;;;;;;20.64;36.88;103163.56;5081250;27;20487;-82
2022/04/29 05:16:11;;;;;;;2.83;2.03;;;;;;;20.69;36.84;103174.63;5080647;28;20032;-81
2022/04/29 05:19:03;;;;;;;2.22;2.00;;;;;;;20.64;36.68;103147.69;5095856;28;20076;-82
2022/04/29 05:21:29;;;;;;;2.45;2.25;;;;;;;20.72;36.78;103166.41;5086941;28;20080;-82
2022/04/29 05:23:54;;;;;;;3.42;2.22;;;;;;;20.72;36.74;103166.41;5062385;28;20044;-82
2022/04/29 05:26:40;;;;;;;2.90;2.40;;;;;;;20.74;36.80;103161.84;5094989;28;20074;-81
2022/04/29 05:29:44;;;;;;;3.20;2.00;;;;;;;20.73;36.64;103174.22;5050012;28;20740;-81
2022/04/29 05:32:30;;;;;;;2.67;2.28;;;;;;;20.75;36.59;103167.00;5039868;28;20059;-82
2022/04/29 05:35:14;;;;;;;3.03;2.00;;;;;;;20.76;36.83;103168.66;5089023;28;20050;-81
2022/04/29 05:38:01;;;;;;;2.40;2.20;;;;;;;20.77;36.76;103167.69;5078840;28;20081;-82
2022/04/29 05:43:12;;;;;;;2.28;2.08;;;;;;;20.69;36.66;103156.94;5082749;28;20457;-82
2022/04/29 05:45:38;;;;;;;6.60;2.00;;;;;;;20.80;36.77;103158.66;5098327;28;20044;-82
2022/04/29 05:48:04;;;;;;;2.25;2.05;;;;;;;20.99;36.42;103153.47;5079480;28;20104;-82
2022/04/29 05:50:32;;;;;;;3.17;2.40;;;;;;;21.38;36.01;103143.94;5081659;28;20049;-81
2022/04/29 05:52:58;;;;;;;3.00;2.00;;;;;;;21.83;35.57;103142.66;5080960;28;20038;-82
2022/04/29 05:55:25;;;;;;;3.17;2.08;;;;;;;22.29;34.65;103126.09;5080393;28;20046;-82
2022/04/29 05:57:53;;;;;;;2.00;1.90;;;;;;;22.65;34.00;103121.00;5083896;28;20039;-82
2022/04/29 06:00:19;;;;;;;2.67;2.08;;;;;;;22.88;33.52;103131.19;5083470;28;20090;-82
2022/04/29 06:02:56;;;;;;;1.92;1.80;;;;;;;22.78;33.90;103137.47;5076037;28;20051;-83
2022/04/29 06:05:24;;;;;;;3.05;1.90;;;;;;;22.66;34.25;103136.81;5081356;28;20027;-82
2022/04/29 06:07:50;;;;;;;2.30;2.00;;;;;;;22.51;34.64;103135.56;5080902;28;20036;-82
2022/04/29 06:10:21;;;;;;;2.20;2.00;;;;;;;22.27;34.62;103120.94;5086036;28;20035;-82
2022/04/29 06:12:47;;;;;;;2.10;1.90;;;;;;;22.34;34.64;103130.97;5085537;28;20035;-81
2022/04/29 06:15:33;;;;;;;2.03;1.92;;;;;;;22.07;34.97;103110.44;5085375;28;20044;-82
2022/04/29 06:18:17;;;;;;;2.95;2.00;;;;;;;22.08;35.13;103120.91;5098975;28;20112;-82
2022/04/29 06:21:01;;;;;;;2.15;1.95;;;;;;;22.06;35.00;103130.81;5078770;28;20054;-83
2022/04/29 06:23:46;;;;;;;3.17;1.80;;;;;;;22.11;35.30;103149.00;5101239;28;20047;-82
2022/04/29 06:26:11;;;;;;;2.15;1.95;;;;;;;22.10;34.99;103142.03;5096934;28;20177;-82
2022/04/29 06:28:37;;;;;;;1.70;1.55;;;;;;;21.90;35.22;103133.16;5084418;28;20134;-82
2022/04/29 06:31:05;;;;;;;2.47;2.00;;;;;;;21.98;35.55;103152.72;5080491;28;20044;-82
2022/04/29 06:33:31;;;;;;;3.00;2.00;;;;;;;21.91;35.66;103164.03;5097437;28;20040;-82
2022/04/29 06:35:57;;;;;;;2.13;1.92;;;;;;;21.89;35.60;103155.34;5090577;28;20382;-82
2022/04/29 06:38:24;;;;;;;2.00;1.90;;;;;;;21.86;35.66;103158.28;5066754;28;20120;-82
2022/04/29 06:40:57;;;;;;;2.28;2.08;;;;;;;21.80;35.57;103164.97;5089118;28;20122;-82
2022/04/29 06:43:30;;;;;;;1.95;1.85;;;;;;;21.77;35.64;103167.91;5075552;28;20221;-82
2022/04/29 06:46:27;;;;;;;2.10;1.90;;;;;;;21.70;35.88;103178.19;5055221;28;20098;-82
2022/04/29 06:49:19;;;;;;;2.30;2.10;;;;;;;21.68;35.77;103172.19;5085836;28;20786;-82
2022/04/29 06:51:53;;;;;;;1.95;1.83;;;;;;;21.60;35.79;103160.59;5082859;28;20486;-81
2022/04/29 06:54:22;;;;;;;2.40;1.85;;;;;;;21.66;35.69;103171.50;5064051;28;20061;-81
2022/04/29 06:56:52;;;;;;;2.55;1.90;;;;;;;21.64;35.86;103177.91;5058676;28;20045;-81
2022/04/29 06:59:19;;;;;;;2.30;2.10;;;;;;;21.47;35.95;103155.53;5025683;28;20417;-81
2022/04/29 07:01:45;;;;;;;2.17;1.90;;;;;;;21.59;36.02;103190.75;5008285;28;20064;-81
2022/04/29 07:04:11;;;;;;;2.35;1.90;;;;;;;21.56;35.82;103177.75;5059322;28;20830;-82
2022/04/29 07:06:37;;;;;;;2.17;1.98;;;;;;;21.59;36.08;103188.09;5042676;28;20044;-82
2022/04/29 07:09:04;;;;;;;2.65;1.85;;;;;;;21.42;36.20;103163.06;5041263;28;20505;-82
2022/04/29 07:11:56;;;;;;;2.25;2.00;;;;;;;21.50;36.15;103173.81;5034322;28;20160;-81
2022/04/29 07:14:44;;;;;;;1.90;1.80;;;;;;;21.58;35.82;103186.41;5056073;28;20091;-81
2022/04/29 07:17:11;;;;;;;2.20;2.00;;;;;;;21.61;35.88;103186.16;5059569;28;20075;-81
2022/04/29 07:19:42;;;;;;;2.35;1.90;;;;;;;21.65;35.50;103147.78;5061384;28;20036;-81
2022/04/29 07:22:08;;;;;;;3.40;2.10;;;;;;;21.90;35.54;103187.06;5058142;28;20507;-83
2022/04/29 07:24:40;;;;;;;2.00;1.90;;;;;;;21.92;35.50;103177.16;5048463;28;20029;-81
2022/04/29 07:27:06;;;;;;;2.88;1.98;;;;;;;21.91;35.54;103178.13;5058488;28;20063;-80
2022/04/29 07:29:33;;;;;;;2.85;2.20;;;;;;;21.79;35.63;103157.16;5058919;28;20082;-80
2022/04/29 07:32:06;;;;;;;2.15;1.95;;;;;;;21.85;35.60;103168.06;5057443;28;20123;-80
2022/04/29 07:43:13;;;;;;;2.03;1.85;;;;;;;21.82;35.80;103160.38;5062818;28;20040;-79
2022/04/29 07:45:39;;;;;;;2.05;1.83;;;;;;;21.82;35.84;103159.53;5060898;28;20044;-80
2022/04/29 07:48:25;;;;;;;1.90;1.80;;;;;;;21.76;35.74;103155.63;5058265;28;20132;-79
2022/04/29 07:50:51;;;;;;;1.90;1.80;;;;;;;21.76;36.02;103155.63;5059098;28;20033;-79
2022/04/29 07:53:18;;;;;;;2.33;2.00;;;;;;;21.75;35.57;103161.06;5059788;28;20048;-79
2022/04/29 07:55:43;;;;;;;3.13;1.85;;;;;;;21.95;35.05;103155.66;5056735;28;20040;-80
2022/04/29 07:58:10;;;;;;;3.08;2.03;;;;;;;22.19;34.85;103163.25;5076823;28;20044;-83
2022/04/29 08:00:39;;;;;;;2.03;1.70;;;;;;;22.15;34.93;103164.50;5039006;28;20051;-80
2022/04/29 08:03:06;;;;;;;3.25;1.80;;;;;;;22.01;35.36;103154.25;5082740;28;20032;-80
2022/04/29 08:05:49;;;;;;;2.38;2.13;;;;;;;22.06;35.52;103164.47;5084076;28;20071;-79
2022/04/29 08:08:16;;;;;;;2.10;1.90;;;;;;;22.00;35.28;103165.84;5088233;28;20094;-79
2022/04/29 08:10:42;;;;;;;2.78;1.77;;;;;;;22.01;35.47;103164.88;5090180;28;20051;-80
2022/04/29 08:13:08;;;;;;;1.95;1.85;;;;;;;22.02;35.24;103161.22;5052267;28;20051;-81
2022/04/29 08:15:52;;;;;;;3.00;2.03;;;;;;;21.91;35.44;103151.59;5083698;28;20089;-80
2022/04/29 08:18:41;;;;;;;1.90;1.73;;;;;;;22.03;35.71;103171.72;5022308;28;20066;-80
2022/04/29 08:21:07;;;;;;;2.08;1.88;;;;;;;21.94;35.48;103158.44;5092146;28;20040;-79
2022/04/29 08:23:33;;;;;;;2.22;2.03;;;;;;;22.07;35.23;103166.16;5050651;28;20055;-80
2022/04/29 08:25:58;;;;;;;2.28;1.80;;;;;;;21.97;35.33;103152.84;5081747;28;20081;-80
2022/04/29 08:28:26;;;;;;;3.17;2.10;;;;;;;22.09;35.08;103158.91;5067101;28;20382;-80
2022/04/29 08:30:52;;;;;;;2.15;1.95;;;;;;;22.01;35.23;103147.13;5086580;28;20036;-80
2022/04/29 08:33:18;;;;;;;2.58;1.85;;;;;;;21.86;35.26;103121.97;5075237;28;20051;-80
2022/04/29 08:35:48;;;;;;;2.15;1.85;;;;;;;22.04;35.18;103148.66;5046159;28;20037;-80
2022/04/29 08:38:13;;;;;;;2.10;1.90;;;;;;;22.05;35.35;103154.84;5081552;28;20048;-80
2022/04/29 08:40:47;;;;;;;1.90;1.80;;;;;;;22.03;35.67;103154.94;5060824;28;20031;-80
2022/04/29 08:43:15;;;;;;;1.95;1.85;;;;;;;22.06;35.25;103161.81;5081057;28;20604;-80
2022/04/29 08:45:43;;;;;;;1.77;1.67;;;;;;;22.00;35.44;103152.56;5056242;28;20035;-80
2022/04/29 08:48:30;;;;;;;2.03;1.80;;;;;;;22.05;35.29;103163.63;5089365;28;20595;-80
2022/04/29 08:50:57;;;;;;;1.83;1.73;;;;;;;21.87;35.51;103128.97;5058898;28;20030;-78
2022/04/29 08:53:23;;;;;;;2.35;1.98;;;;;;;22.06;35.27;103165.31;5053475;28;20204;-79
2022/04/29 08:58:36;;;;;;;2.25;1.90;;;;;;;22.05;35.50;103162.81;5058499;28;20080;-78
2022/04/29 09:01:08;;;;;;;1.80;1.70;;;;;;;22.07;35.13;103172.28;5029486;28;21828;-77
2022/04/29 09:03:35;;;;;;;3.63;1.90;;;;;;;21.95;35.43;103155.66;5061409;28;20375;-78
2022/04/29 09:06:04;;;;;;;1.80;1.70;;;;;;;21.84;35.25;103141.66;5044124;28;20429;-78
2022/04/29 09:08:37;;;;;;;1.60;1.50;;;;;;;21.90;35.36;103141.09;5051885;28;20031;-77
2022/04/29 09:11:05;;;;;;;2.28;1.77;;;;;;;22.00;35.41;103165.84;5048461;28;20497;-78
2022/04/29 09:13:34;;;;;;;2.58;2.25;;;;;;;21.95;35.26;103162.78;5048918;28;20028;-78
2022/04/29 09:16:04;;;;;;;2.00;1.75;;;;;;;21.96;35.14;103162.63;5046407;28;20649;-78
2022/04/29 09:18:33;;;;;;;1.80;1.70;;;;;;;21.94;35.29;103153.97;5059981;28;20052;-78
2022/04/29 09:21:19;;;;;;;1.95;1.80;;;;;;;21.84;35.39;103136.34;5060860;28;20044;-79
2022/04/29 09:23:56;;;;;;;1.90;1.80;;;;;;;21.93;35.06;103165.56;5043381;28;20098;-78
2022/04/29 09:26:40;;;;;;;3.67;1.63;;;;;;;21.81;35.42;103141.94;5060520;28;20183;-78
2022/04/29 09:29:17;;;;;;;2.45;1.92;;;;;;;21.89;35.15;103148.22;5029781;28;20045;-78
2022/04/29 09:32:01;;;;;;;1.70;1.60;;;;;;;21.90;35.21;103149.06;5061306;28;20171;-78
2022/04/29 09:34:50;;;;;;;1.85;1.75;;;;;;;21.93;35.33;103154.13;5020388;28;20639;-78
2022/04/29 09:37:19;;;;;;;3.00;1.80;;;;;;;21.92;35.14;103155.94;5062794;28;20044;-78
2022/04/29 09:39:51;;;;;;;1.95;1.60;;;;;;;21.94;35.12;103159.28;5057392;28;20032;-78
2022/04/29 09:42:17;;;;;;;1.65;1.55;;;;;;;21.74;35.08;103130.22;5044046;28;20383;-78
2022/04/29 09:44:42;;;;;;;4.10;2.08;;;;;;;21.77;34.99;103144.03;5067575;28;20094;-78
2022/04/29 09:47:10;;;;;;;2.60;1.90;;;;;;;21.91;35.30;103164.88;5035143;28;20033;-78
2022/04/29 09:49:36;;;;;;;2.63;1.70;;;;;;;21.90;35.16;103170.28;5057684;28;20032;-78
2022/04/29 09:52:02;;;;;;;2.42;1.75;;;;;;;21.92;35.34;103171.00;5024957;28;20052;-78
2022/04/29 09:54:30;;;;;;;2.65;1.85;;;;;;;21.93;35.09;103167.38;5081323;28;20044;-78
2022/04/29 09:57:18;;;;;;;2.15;1.90;;;;;;;21.95;35.01;103165.44;5080395;27;20610;-77
2022/04/29 09:59:48;;;;;;;2.13;1.63;;;;;;;21.95;35.35;103163.63;5107888;27;20043;-78
2022/04/29 10:02:21;;;;;;;1.95;1.55;;;;;;;21.99;34.88;103156.22;5081073;28;20027;-77
2022/04/29 10:04:51;;;;;;;2.20;1.98;;;;;;;21.97;35.03;103166.97;5077056;28;20109;-78
2022/04/29 10:07:18;;;;;;;2.28;1.70;;;;;;;21.94;34.98;103164.59;5069388;27;20040;-78
2022/04/29 10:09:47;;;;;;;2.67;1.80;;;;;;;21.95;35.27;103165.44;5061836;28;20181;-78
2022/04/29 10:12:18;;;;;;;2.47;1.90;;;;;;;21.84;35.18;103139.00;5081098;27;20055;-79
2022/04/29 10:14:58;;;;;;;1.88;1.60;;;;;;;21.89;35.35;103155.34;5076749;28;20028;-78
2022/04/29 10:23:51;;;;;;;1.95;1.85;;;;;;;22.00;35.02;103158.72;4991856;28;20048;-78
2022/04/29 10:26:22;;;;;;;2.28;2.08;;;;;;;21.99;35.05;103154.41;5087574;28;20055;-78
2022/04/29 10:28:49;;;;;;;2.22;1.73;;;;;;;21.98;34.97;103157.19;5066736;28;20501;-78
2022/04/29 10:31:20;;;;;;;2.00;1.70;;;;;;;22.00;35.08;103152.56;5097793;27;20036;-78
2022/04/29 10:33:46;;;;;;;2.40;2.20;;;;;;;21.96;35.00;103133.44;5071522;28;20099;-78
2022/04/29 10:36:17;;;;;;;2.33;1.80;;;;;;;22.00;34.61;103149.94;5067863;28;20035;-78
2022/04/29 10:38:46;;;;;;;2.05;1.95;;;;;;;22.10;34.56;103124.28;5066334;28;20047;-80
2022/04/29 10:41:20;;;;;;;1.90;1.77;;;;;;;22.46;34.54;103151.09;5086798;28;20063;-80
2022/04/29 10:43:55;;;;;;;2.08;1.88;;;;;;;22.49;34.61;103158.78;5100908;28;20055;-79
2022/04/29 10:46:30;;;;;;;2.03;1.90;;;;;;;22.50;34.34;103153.31;5092857;28;20035;-78
2022/04/29 10:49:28;;;;;;;2.35;1.98;;;;;;;22.59;34.57;103164.88;5093457;27;20051;-80
2022/04/29 10:52:28;;;;;;;2.53;2.00;;;;;;;22.48;34.57;103143.81;5107318;27;20042;-78
2022/04/29 10:55:24;;;;;;;2.90;2.17;;;;;;;22.31;34.42;103145.38;5010883;28;20053;-78
2022/04/29 10:58:17;;;;;;;3.50;2.47;;;;;;;22.20;34.20;103149.00;5064736;28;20037;-78
2022/04/29 11:01:20;;;;;;;2.22;2.03;;;;;;;22.30;34.41;103157.81;5037333;28;20039;-78
2022/04/29 11:03:47;;;;;;;2.58;2.20;;;;;;;22.18;34.26;103136.84;5065517;28;20459;-78
2022/04/29 11:06:14;;;;;;;3.13;2.17;;;;;;;22.15;34.21;103129.16;5033810;28;20045;-77
2022/04/29 11:08:41;;;;;;;2.83;2.30;;;;;;;22.29;34.21;103139.38;5065204;28;20645;-78
2022/04/29 11:11:08;;;;;;;2.92;2.22;;;;;;;22.55;33.82;103163.50;5025868;28;20087;-78
2022/04/29 11:14:00;;;;;;;3.25;2.50;;;;;;;22.64;33.66;103153.88;5076959;28;20029;-79
2022/04/29 11:17:07;;;;;;;2.55;2.00;;;;;;;22.65;34.11;103152.88;5034368;28;20051;-78
2022/04/29 11:19:47;;;;;;;3.72;2.30;;;;;;;22.43;34.71;103151.34;5062577;28;22223;-79
2022/04/29 11:25:04;;;;;;;4.15;2.13;;;;;;;22.36;34.60;103151.09;5064169;28;20082;-78
2022/04/29 11:27:37;;;;;;;3.65;2.70;;;;;;;22.34;34.56;103161.00;5017873;28;20572;-78
2022/04/29 11:30:07;;;;;;;2.33;2.10;;;;;;;22.35;34.77;103159.19;5065535;28;20044;-78
2022/04/29 11:33:05;;;;;;;2.72;2.30;;;;;;;22.35;34.51;103167.16;5031075;28;20048;-77
2022/04/29 11:35:31;;;;;;;3.38;2.10;;;;;;;22.22;34.54;103141.72;5065006;28;20098;-76
2022/04/29 11:37:58;;;;;;;2.92;2.17;;;;;;;21.98;34.49;103104.97;5037177;28;20033;-76
2022/04/29 11:40:26;;;;;;;2.75;2.08;;;;;;;22.32;34.37;103157.66;5032063;28;20034;-77
2022/04/29 11:42:52;;;;;;;2.30;2.10;;;;;;;22.29;34.42;103160.59;5022010;28;21601;-77
2022/04/29 11:45:20;;;;;;;2.30;2.10;;;;;;;22.28;34.69;103157.09;5066020;28;20047;-77
2022/04/29 11:47:49;;;;;;;2.45;2.10;;;;;;;22.24;34.86;103144.22;5063100;28;20097;-78
2022/04/29 11:50:14;;;;;;;2.35;2.15;;;;;;;21.80;34.54;103080.09;5040461;28;20033;-77
2022/04/29 11:52:40;;;;;;;2.25;2.10;;;;;;;22.26;34.61;103153.75;5061989;28;20471;-77
2022/04/29 11:55:11;;;;;;;3.80;2.00;;;;;;;22.24;34.49;103150.38;5046840;28;20044;-77
2022/04/29 11:57:49;;;;;;;2.42;2.22;;;;;;;22.20;34.72;103135.72;5080769;28;20758;-77
2022/04/29 12:00:24;;;;;;;2.78;2.30;;;;;;;22.25;34.50;103149.41;5033179;28;20063;-77
2022/04/29 12:02:50;;;;;;;2.92;2.38;;;;;;;22.25;34.54;103151.22;5079979;28;20047;-77
2022/04/29 12:05:16;;;;;;;2.67;2.30;;;;;;;22.26;34.59;103147.59;5049834;28;20032;-77
2022/04/29 12:07:47;;;;;;;2.28;2.08;;;;;;;22.00;34.37;103104.81;5081699;28;20092;-76
2022/04/29 12:10:28;;;;;;;2.35;2.10;;;;;;;22.25;34.34;103145.91;5044413;28;20081;-78
2022/04/29 12:12:56;;;;;;;2.83;2.53;;;;;;;22.28;34.42;103143.00;5079932;28;20038;-77